sensor_id;sensor_type;location;lat;lon;timestamp;P1;durP1;ratioP1;P2;durP2;ratioP2
14686;SDS011;7431;49.440;11.084;2023-10-13T00:02:07;13.77;;;7.65;;
14686;SDS011;7431;49.440;11.084;2023-10-13T00:04:33;9.32;;;7.22;;
14686;SDS011;7431;49.440;11.084;2023-10-13T00:07:02;9.55;;;6.78;;
14686;SDS011;7431;49.440;11.084;2023-10-13T00:09:30;11.75;;;6.93;;
14686;SDS011;7431;49.440;11.084;2023-10-13T00:12:02;9.23;;;7.25;;
14686;SDS011;7431;49.440;11.084;2023-10-13T00:14:40;9.57;;;6.90;;
14686;SDS011;7431;49.440;11.084;2023-10-13T00:17:06;12.15;;;7.10;;
14686;SDS011;7431;49.440;11.084;2023-10-13T00:19:34;11.20;;;6.93;;
14686;SDS011;7431;49.440;11.084;2023-10-13T00:22:10;9.35;;;6.55;;
14686;SDS011;7431;49.440;11.084;2023-10-13T00:24:37;10.75;;;7.10;;
14686;SDS011;7431;49.440;11.084;2023-10-13T00:27:08;9.75;;;7.10;;
14686;SDS011;7431;49.440;11.084;2023-10-13T00:29:44;10.52;;;6.93;;
14686;SDS011;7431;49.440;11.084;2023-10-13T00:32:11;11.00;;;7.13;;
14686;SDS011;7431;49.440;11.084;2023-10-13T00:34:37;8.77;;;6.75;;
14686;SDS011;7431;49.440;11.084;2023-10-13T00:37:03;11.85;;;7.55;;
14686;SDS011;7431;49.440;11.084;2023-10-13T00:39:43;10.60;;;7.10;;
14686;SDS011;7431;49.440;11.084;2023-10-13T00:42:10;9.48;;;7.32;;
14686;SDS011;7431;49.440;11.084;2023-10-13T00:44:48;10.98;;;6.82;;
14686;SDS011;7431;49.440;11.084;2023-10-13T00:47:15;11.30;;;7.43;;
14686;SDS011;7431;49.440;11.084;2023-10-13T00:49:57;12.07;;;7.57;;
14686;SDS011;7431;49.440;11.084;2023-10-13T00:52:23;10.17;;;7.50;;
14686;SDS011;7431;49.440;11.084;2023-10-13T00:54:49;8.97;;;6.67;;
14686;SDS011;7431;49.440;11.084;2023-10-13T00:57:16;10.47;;;6.77;;
14686;SDS011;7431;49.440;11.084;2023-10-13T00:59:51;13.90;;;6.97;;
14686;SDS011;7431;49.440;11.084;2023-10-13T01:02:18;10.68;;;7.55;;
14686;SDS011;7431;49.440;11.084;2023-10-13T01:04:59;10.97;;;7.03;;
14686;SDS011;7431;49.440;11.084;2023-10-13T01:07:25;10.20;;;6.80;;
14686;SDS011;7431;49.440;11.084;2023-10-13T01:09:53;10.10;;;6.90;;
14686;SDS011;7431;49.440;11.084;2023-10-13T01:12:19;8.93;;;6.67;;
14686;SDS011;7431;49.440;11.084;2023-10-13T01:14:48;11.60;;;8.23;;
14686;SDS011;7431;49.440;11.084;2023-10-13T01:17:14;11.30;;;7.50;;
14686;SDS011;7431;49.440;11.084;2023-10-13T01:19:40;10.70;;;6.87;;
14686;SDS011;7431;49.440;11.084;2023-10-13T01:22:11;10.57;;;7.43;;
14686;SDS011;7431;49.440;11.084;2023-10-13T01:24:37;10.13;;;7.03;;
14686;SDS011;7431;49.440;11.084;2023-10-13T01:27:03;12.93;;;7.97;;
14686;SDS011;7431;49.440;11.084;2023-10-13T01:29:50;10.70;;;6.97;;
14686;SDS011;7431;49.440;11.084;2023-10-13T01:32:21;10.80;;;7.43;;
14686;SDS011;7431;49.440;11.084;2023-10-13T01:34:48;10.50;;;6.97;;
14686;SDS011;7431;49.440;11.084;2023-10-13T01:37:14;7.23;;;6.47;;
14686;SDS011;7431;49.440;11.084;2023-10-13T01:39:44;9.37;;;6.83;;
14686;SDS011;7431;49.440;11.084;2023-10-13T01:42:14;10.43;;;7.07;;
14686;SDS011;7431;49.440;11.084;2023-10-13T01:44:47;11.37;;;6.73;;
14686;SDS011;7431;49.440;11.084;2023-10-13T01:47:13;8.83;;;7.23;;
14686;SDS011;7431;49.440;11.084;2023-10-13T01:49:41;8.77;;;6.70;;
14686;SDS011;7431;49.440;11.084;2023-10-13T01:52:11;10.57;;;7.30;;
14686;SDS011;7431;49.440;11.084;2023-10-13T01:54:40;10.23;;;7.10;;
14686;SDS011;7431;49.440;11.084;2023-10-13T01:57:08;10.10;;;6.50;;
14686;SDS011;7431;49.440;11.084;2023-10-13T01:59:40;11.13;;;6.50;;
14686;SDS011;7431;49.440;11.084;2023-10-13T02:02:09;11.50;;;6.80;;
14686;SDS011;7431;49.440;11.084;2023-10-13T02:04:38;8.67;;;6.30;;
14686;SDS011;7431;49.440;11.084;2023-10-13T02:07:13;13.68;;;7.10;;
14686;SDS011;7431;49.440;11.084;2023-10-13T02:09:40;8.60;;;6.30;;
14686;SDS011;7431;49.440;11.084;2023-10-13T02:12:07;8.20;;;6.77;;
14686;SDS011;7431;49.440;11.084;2023-10-13T02:14:34;9.70;;;6.90;;
14686;SDS011;7431;49.440;11.084;2023-10-13T02:17:02;12.37;;;6.77;;
14686;SDS011;7431;49.440;11.084;2023-10-13T02:19:38;13.70;;;7.17;;
14686;SDS011;7431;49.440;11.084;2023-10-13T02:22:10;9.30;;;7.03;;
14686;SDS011;7431;49.440;11.084;2023-10-13T02:24:54;11.10;;;7.07;;
14686;SDS011;7431;49.440;11.084;2023-10-13T02:27:26;8.23;;;7.00;;
14686;SDS011;7431;49.440;11.084;2023-10-13T02:29:52;11.03;;;7.00;;
14686;SDS011;7431;49.440;11.084;2023-10-13T02:32:23;11.73;;;7.63;;
14686;SDS011;7431;49.440;11.084;2023-10-13T02:34:51;9.87;;;7.20;;
14686;SDS011;7431;49.440;11.084;2023-10-13T02:37:17;8.63;;;6.33;;
14686;SDS011;7431;49.440;11.084;2023-10-13T02:39:45;11.77;;;6.70;;
14686;SDS011;7431;49.440;11.084;2023-10-13T02:42:11;10.83;;;7.23;;
14686;SDS011;7431;49.440;11.084;2023-10-13T02:44:48;7.07;;;6.37;;
14686;SDS011;7431;49.440;11.084;2023-10-13T02:47:14;11.77;;;6.72;;
14686;SDS011;7431;49.440;11.084;2023-10-13T02:49:40;14.20;;;7.27;;
14686;SDS011;7431;49.440;11.084;2023-10-13T02:52:11;12.53;;;7.07;;
14686;SDS011;7431;49.440;11.084;2023-10-13T02:54:38;9.03;;;7.03;;
14686;SDS011;7431;49.440;11.084;2023-10-13T02:57:16;10.67;;;6.90;;
14686;SDS011;7431;49.440;11.084;2023-10-13T02:59:42;10.10;;;7.27;;
14686;SDS011;7431;49.440;11.084;2023-10-13T03:02:12;10.90;;;7.10;;
14686;SDS011;7431;49.440;11.084;2023-10-13T03:04:46;11.40;;;7.07;;
14686;SDS011;7431;49.440;11.084;2023-10-13T03:07:12;9.80;;;6.83;;
14686;SDS011;7431;49.440;11.084;2023-10-13T03:09:47;11.60;;;6.60;;
14686;SDS011;7431;49.440;11.084;2023-10-13T03:12:17;10.77;;;6.40;;
14686;SDS011;7431;49.440;11.084;2023-10-13T03:14:43;9.27;;;7.17;;
14686;SDS011;7431;49.440;11.084;2023-10-13T03:17:34;10.83;;;7.03;;
14686;SDS011;7431;49.440;11.084;2023-10-13T03:20:00;9.40;;;6.97;;
14686;SDS011;7431;49.440;11.084;2023-10-13T03:22:30;8.67;;;6.90;;
14686;SDS011;7431;49.440;11.084;2023-10-13T03:24:57;8.77;;;6.80;;
14686;SDS011;7431;49.440;11.084;2023-10-13T03:27:30;11.90;;;7.47;;
14686;SDS011;7431;49.440;11.084;2023-10-13T03:30:25;8.80;;;7.23;;
14686;SDS011;7431;49.440;11.084;2023-10-13T03:33:10;9.97;;;7.10;;
14686;SDS011;7431;49.440;11.084;2023-10-13T03:35:50;10.33;;;6.53;;
14686;SDS011;7431;49.440;11.084;2023-10-13T03:38:19;9.37;;;7.33;;
14686;SDS011;7431;49.440;11.084;2023-10-13T03:40:52;10.67;;;6.53;;
14686;SDS011;7431;49.440;11.084;2023-10-13T03:43:41;9.13;;;6.77;;
14686;SDS011;7431;49.440;11.084;2023-10-13T03:46:10;10.70;;;6.70;;
14686;SDS011;7431;49.440;11.084;2023-10-13T03:48:36;9.30;;;6.67;;
14686;SDS011;7431;49.440;11.084;2023-10-13T03:51:19;8.53;;;6.50;;
14686;SDS011;7431;49.440;11.084;2023-10-13T03:53:45;8.47;;;7.10;;
14686;SDS011;7431;49.440;11.084;2023-10-13T03:56:21;10.37;;;6.93;;
14686;SDS011;7431;49.440;11.084;2023-10-13T03:59:03;9.43;;;7.23;;
14686;SDS011;7431;49.440;11.084;2023-10-13T04:01:35;9.27;;;6.70;;
14686;SDS011;7431;49.440;11.084;2023-10-13T04:04:12;9.80;;;7.03;;
14686;SDS011;7431;49.440;11.084;2023-10-13T04:06:40;11.07;;;7.13;;
14686;SDS011;7431;49.440;11.084;2023-10-13T04:09:21;9.90;;;7.00;;
14686;SDS011;7431;49.440;11.084;2023-10-13T04:14:40;14.70;;;6.70;;
14686;SDS011;7431;49.440;11.084;2023-10-13T04:17:25;10.60;;;6.83;;
14686;SDS011;7431;49.440;11.084;2023-10-13T04:19:52;9.07;;;6.40;;
14686;SDS011;7431;49.440;11.084;2023-10-13T04:22:30;12.13;;;7.40;;
14686;SDS011;7431;49.440;11.084;2023-10-13T04:27:55;7.97;;;5.70;;
14686;SDS011;7431;49.440;11.084;2023-10-13T04:30:45;10.33;;;6.20;;
14686;SDS011;7431;49.440;11.084;2023-10-13T04:38:47;8.40;;;6.87;;
14686;SDS011;7431;49.440;11.084;2023-10-13T04:41:24;10.33;;;6.43;;
14686;SDS011;7431;49.440;11.084;2023-10-13T04:43:57;8.33;;;6.33;;
14686;SDS011;7431;49.440;11.084;2023-10-13T04:46:29;8.73;;;6.03;;
14686;SDS011;7431;49.440;11.084;2023-10-13T04:49:19;6.40;;;5.73;;
14686;SDS011;7431;49.440;11.084;2023-10-13T04:52:04;9.40;;;6.53;;
14686;SDS011;7431;49.440;11.084;2023-10-13T04:54:34;8.40;;;5.83;;
14686;SDS011;7431;49.440;11.084;2023-10-13T04:57:12;8.70;;;6.07;;
14686;SDS011;7431;49.440;11.084;2023-10-13T04:59:44;9.87;;;6.30;;
14686;SDS011;7431;49.440;11.084;2023-10-13T05:02:31;9.87;;;6.30;;
14686;SDS011;7431;49.440;11.084;2023-10-13T05:05:01;8.90;;;5.93;;
14686;SDS011;7431;49.440;11.084;2023-10-13T05:07:30;11.30;;;5.73;;
14686;SDS011;7431;49.440;11.084;2023-10-13T05:10:15;9.47;;;6.80;;
14686;SDS011;7431;49.440;11.084;2023-10-13T05:13:00;7.93;;;6.03;;
14686;SDS011;7431;49.440;11.084;2023-10-13T05:15:46;7.47;;;5.20;;
14686;SDS011;7431;49.440;11.084;2023-10-13T05:18:31;7.43;;;4.73;;
14686;SDS011;7431;49.440;11.084;2023-10-13T05:21:16;7.83;;;5.60;;
14686;SDS011;7431;49.440;11.084;2023-10-13T05:24:01;6.20;;;5.23;;
14686;SDS011;7431;49.440;11.084;2023-10-13T05:26:46;7.33;;;5.07;;
14686;SDS011;7431;49.440;11.084;2023-10-13T05:29:31;6.63;;;4.87;;
14686;SDS011;7431;49.440;11.084;2023-10-13T05:32:15;6.57;;;4.77;;
14686;SDS011;7431;49.440;11.084;2023-10-13T05:35:00;7.80;;;4.73;;
14686;SDS011;7431;49.440;11.084;2023-10-13T05:37:45;6.43;;;4.83;;
14686;SDS011;7431;49.440;11.084;2023-10-13T05:40:29;5.87;;;4.80;;
14686;SDS011;7431;49.440;11.084;2023-10-13T05:43:14;5.90;;;4.83;;
14686;SDS011;7431;49.440;11.084;2023-10-13T05:46:02;8.13;;;4.53;;
14686;SDS011;7431;49.440;11.084;2023-10-13T05:48:48;7.63;;;4.90;;
14686;SDS011;7431;49.440;11.084;2023-10-13T05:51:37;6.17;;;4.53;;
14686;SDS011;7431;49.440;11.084;2023-10-13T05:54:06;6.70;;;4.70;;
14686;SDS011;7431;49.440;11.084;2023-10-13T05:56:41;6.50;;;4.80;;
14686;SDS011;7431;49.440;11.084;2023-10-13T05:59:27;7.33;;;5.00;;
14686;SDS011;7431;49.440;11.084;2023-10-13T06:02:12;10.80;;;5.23;;
14686;SDS011;7431;49.440;11.084;2023-10-13T06:04:57;4.97;;;4.43;;
14686;SDS011;7431;49.440;11.084;2023-10-13T06:07:41;7.30;;;4.43;;
14686;SDS011;7431;49.440;11.084;2023-10-13T06:10:26;7.32;;;4.68;;
14686;SDS011;7431;49.440;11.084;2023-10-13T06:13:11;6.10;;;4.67;;
14686;SDS011;7431;49.440;11.084;2023-10-13T06:15:56;9.70;;;5.20;;
14686;SDS011;7431;49.440;11.084;2023-10-13T06:18:40;5.28;;;4.55;;
14686;SDS011;7431;49.440;11.084;2023-10-13T06:21:25;9.10;;;5.07;;
14686;SDS011;7431;49.440;11.084;2023-10-13T06:24:10;6.25;;;4.28;;
14686;SDS011;7431;49.440;11.084;2023-10-13T06:26:54;5.00;;;3.80;;
14686;SDS011;7431;49.440;11.084;2023-10-13T06:29:39;7.78;;;4.45;;
14686;SDS011;7431;49.440;11.084;2023-10-13T06:32:05;8.15;;;4.45;;
14686;SDS011;7431;49.440;11.084;2023-10-13T06:34:38;5.75;;;3.35;;
14686;SDS011;7431;49.440;11.084;2023-10-13T06:37:16;5.85;;;4.07;;
14686;SDS011;7431;49.440;11.084;2023-10-13T06:39:55;9.45;;;4.50;;
14686;SDS011;7431;49.440;11.084;2023-10-13T06:42:25;8.18;;;4.28;;
14686;SDS011;7431;49.440;11.084;2023-10-13T06:44:52;7.10;;;4.13;;
14686;SDS011;7431;49.440;11.084;2023-10-13T06:47:19;5.93;;;4.15;;
14686;SDS011;7431;49.440;11.084;2023-10-13T06:49:46;4.40;;;3.88;;
14686;SDS011;7431;49.440;11.084;2023-10-13T06:52:13;5.20;;;3.85;;
14686;SDS011;7431;49.440;11.084;2023-10-13T06:54:41;7.07;;;4.00;;
14686;SDS011;7431;49.440;11.084;2023-10-13T06:57:08;5.82;;;3.63;;
14686;SDS011;7431;49.440;11.084;2023-10-13T06:59:39;6.35;;;3.70;;
14686;SDS011;7431;49.440;11.084;2023-10-13T07:02:05;5.35;;;3.95;;
14686;SDS011;7431;49.440;11.084;2023-10-13T07:04:34;5.38;;;4.15;;
14686;SDS011;7431;49.440;11.084;2023-10-13T07:07:04;5.65;;;4.05;;
14686;SDS011;7431;49.440;11.084;2023-10-13T07:09:34;4.45;;;3.47;;
14686;SDS011;7431;49.440;11.084;2023-10-13T07:12:00;5.60;;;3.78;;
14686;SDS011;7431;49.440;11.084;2023-10-13T07:14:27;4.22;;;3.83;;
14686;SDS011;7431;49.440;11.084;2023-10-13T07:17:00;4.10;;;3.63;;
14686;SDS011;7431;49.440;11.084;2023-10-13T07:19:27;5.20;;;3.47;;
14686;SDS011;7431;49.440;11.084;2023-10-13T07:21:54;7.20;;;3.97;;
14686;SDS011;7431;49.440;11.084;2023-10-13T07:24:27;5.65;;;3.63;;
14686;SDS011;7431;49.440;11.084;2023-10-13T07:26:56;6.22;;;3.33;;
14686;SDS011;7431;49.440;11.084;2023-10-13T07:29:28;6.00;;;3.65;;
14686;SDS011;7431;49.440;11.084;2023-10-13T07:31:55;6.07;;;4.00;;
14686;SDS011;7431;49.440;11.084;2023-10-13T07:34:21;5.20;;;3.58;;
14686;SDS011;7431;49.440;11.084;2023-10-13T07:36:57;6.25;;;3.65;;
14686;SDS011;7431;49.440;11.084;2023-10-13T07:39:29;7.63;;;3.42;;
14686;SDS011;7431;49.440;11.084;2023-10-13T07:42:04;6.63;;;3.75;;
14686;SDS011;7431;49.440;11.084;2023-10-13T07:44:31;6.57;;;3.55;;
14686;SDS011;7431;49.440;11.084;2023-10-13T07:46:58;5.22;;;3.42;;
14686;SDS011;7431;49.440;11.084;2023-10-13T07:49:36;7.53;;;4.30;;
14686;SDS011;7431;49.440;11.084;2023-10-13T07:52:04;5.03;;;3.33;;
14686;SDS011;7431;49.440;11.084;2023-10-13T07:54:51;6.25;;;3.80;;
14686;SDS011;7431;49.440;11.084;2023-10-13T07:57:24;6.20;;;3.53;;
14686;SDS011;7431;49.440;11.084;2023-10-13T07:59:56;6.85;;;3.60;;
14686;SDS011;7431;49.440;11.084;2023-10-13T08:02:35;6.63;;;3.63;;
14686;SDS011;7431;49.440;11.084;2023-10-13T08:05:14;4.97;;;3.60;;
14686;SDS011;7431;49.440;11.084;2023-10-13T08:07:49;6.18;;;3.00;;
14686;SDS011;7431;49.440;11.084;2023-10-13T08:10:15;6.57;;;3.42;;
14686;SDS011;7431;49.440;11.084;2023-10-13T08:12:42;7.05;;;3.10;;
14686;SDS011;7431;49.440;11.084;2023-10-13T08:15:09;4.40;;;3.40;;
14686;SDS011;7431;49.440;11.084;2023-10-13T08:17:46;6.80;;;3.70;;
14686;SDS011;7431;49.440;11.084;2023-10-13T08:20:12;7.32;;;3.22;;
14686;SDS011;7431;49.440;11.084;2023-10-13T08:22:41;7.85;;;3.78;;
14686;SDS011;7431;49.440;11.084;2023-10-13T08:25:12;4.82;;;3.33;;
14686;SDS011;7431;49.440;11.084;2023-10-13T08:27:58;5.85;;;3.83;;
14686;SDS011;7431;49.440;11.084;2023-10-13T08:30:44;7.50;;;3.63;;
14686;SDS011;7431;49.440;11.084;2023-10-13T08:33:17;6.13;;;3.55;;
14686;SDS011;7431;49.440;11.084;2023-10-13T08:35:44;4.40;;;3.20;;
14686;SDS011;7431;49.440;11.084;2023-10-13T08:38:20;4.50;;;3.42;;
14686;SDS011;7431;49.440;11.084;2023-10-13T08:40:53;5.65;;;3.55;;
14686;SDS011;7431;49.440;11.084;2023-10-13T08:43:42;4.80;;;3.45;;
14686;SDS011;7431;49.440;11.084;2023-10-13T08:46:10;7.47;;;3.42;;
14686;SDS011;7431;49.440;11.084;2023-10-13T08:48:52;5.75;;;3.20;;
14686;SDS011;7431;49.440;11.084;2023-10-13T08:51:28;6.55;;;3.45;;
14686;SDS011;7431;49.440;11.084;2023-10-13T08:54:08;4.10;;;2.90;;
14686;SDS011;7431;49.440;11.084;2023-10-13T08:56:44;8.93;;;3.30;;
14686;SDS011;7431;49.440;11.084;2023-10-13T08:59:21;7.15;;;3.15;;
14686;SDS011;7431;49.440;11.084;2023-10-13T09:01:48;5.63;;;3.58;;
14686;SDS011;7431;49.440;11.084;2023-10-13T09:04:24;4.53;;;2.97;;
14686;SDS011;7431;49.440;11.084;2023-10-13T09:07:00;5.03;;;3.30;;
14686;SDS011;7431;49.440;11.084;2023-10-13T09:12:26;5.75;;;3.47;;
14686;SDS011;7431;49.440;11.084;2023-10-13T09:17:49;3.38;;;2.83;;
14686;SDS011;7431;49.440;11.084;2023-10-13T09:20:15;7.15;;;3.30;;
14686;SDS011;7431;49.440;11.084;2023-10-13T09:22:53;6.57;;;3.40;;
14686;SDS011;7431;49.440;11.084;2023-10-13T09:25:34;8.30;;;3.47;;
14686;SDS011;7431;49.440;11.084;2023-10-13T09:28:01;4.78;;;3.50;;
14686;SDS011;7431;49.440;11.084;2023-10-13T09:30:27;4.95;;;3.47;;
14686;SDS011;7431;49.440;11.084;2023-10-13T09:33:00;5.97;;;3.60;;
14686;SDS011;7431;49.440;11.084;2023-10-13T09:35:26;6.35;;;3.10;;
14686;SDS011;7431;49.440;11.084;2023-10-13T09:37:53;8.35;;;3.75;;
14686;SDS011;7431;49.440;11.084;2023-10-13T09:40:21;4.03;;;3.40;;
14686;SDS011;7431;49.440;11.084;2023-10-13T09:42:51;8.38;;;3.88;;
14686;SDS011;7431;49.440;11.084;2023-10-13T09:45:20;4.22;;;3.30;;
14686;SDS011;7431;49.440;11.084;2023-10-13T09:47:52;7.53;;;3.22;;
14686;SDS011;7431;49.440;11.084;2023-10-13T09:50:18;5.47;;;3.10;;
14686;SDS011;7431;49.440;11.084;2023-10-13T09:52:51;5.68;;;3.22;;
14686;SDS011;7431;49.440;11.084;2023-10-13T09:57:45;5.90;;;3.08;;
14686;SDS011;7431;49.440;11.084;2023-10-13T10:00:15;5.38;;;3.65;;
14686;SDS011;7431;49.440;11.084;2023-10-13T10:02:54;6.72;;;2.97;;
14686;SDS011;7431;49.440;11.084;2023-10-13T10:05:26;3.35;;;2.75;;
14686;SDS011;7431;49.440;11.084;2023-10-13T10:07:55;5.45;;;3.17;;
14686;SDS011;7431;49.440;11.084;2023-10-13T10:10:23;3.33;;;3.03;;
14686;SDS011;7431;49.440;11.084;2023-10-13T10:13:07;5.07;;;2.85;;
14686;SDS011;7431;49.440;11.084;2023-10-13T10:15:39;2.95;;;2.45;;
14686;SDS011;7431;49.440;11.084;2023-10-13T10:18:21;6.30;;;3.45;;
14686;SDS011;7431;49.440;11.084;2023-10-13T10:20:48;5.18;;;3.33;;
14686;SDS011;7431;49.440;11.084;2023-10-13T10:23:26;4.40;;;3.10;;
14686;SDS011;7431;49.440;11.084;2023-10-13T10:25:54;6.43;;;3.35;;
14686;SDS011;7431;49.440;11.084;2023-10-13T10:31:04;3.53;;;2.58;;
14686;SDS011;7431;49.440;11.084;2023-10-13T10:33:34;6.30;;;2.97;;
14686;SDS011;7431;49.440;11.084;2023-10-13T10:36:00;5.65;;;3.35;;
14686;SDS011;7431;49.440;11.084;2023-10-13T10:38:27;4.70;;;2.97;;
14686;SDS011;7431;49.440;11.084;2023-10-13T10:43:29;8.55;;;3.42;;
14686;SDS011;7431;49.440;11.084;2023-10-13T10:46:07;4.03;;;2.92;;
14686;SDS011;7431;49.440;11.084;2023-10-13T10:48:35;7.82;;;2.63;;
14686;SDS011;7431;49.440;11.084;2023-10-13T10:51:03;9.43;;;3.28;;
14686;SDS011;7431;49.440;11.084;2023-10-13T10:53:38;7.97;;;2.95;;
14686;SDS011;7431;49.440;11.084;2023-10-13T10:56:11;3.28;;;2.90;;
14686;SDS011;7431;49.440;11.084;2023-10-13T10:58:57;3.38;;;2.40;;
14686;SDS011;7431;49.440;11.084;2023-10-13T11:01:23;5.43;;;2.55;;
14686;SDS011;7431;49.440;11.084;2023-10-13T11:06:32;6.30;;;3.00;;
14686;SDS011;7431;49.440;11.084;2023-10-13T11:09:03;5.10;;;2.60;;
14686;SDS011;7431;49.440;11.084;2023-10-13T11:11:33;4.85;;;2.55;;
14686;SDS011;7431;49.440;11.084;2023-10-13T11:14:08;3.33;;;2.65;;
14686;SDS011;7431;49.440;11.084;2023-10-13T11:16:48;5.43;;;3.00;;
14686;SDS011;7431;49.440;11.084;2023-10-13T11:19:21;3.80;;;2.83;;
14686;SDS011;7431;49.440;11.084;2023-10-13T11:21:50;3.92;;;2.22;;
14686;SDS011;7431;49.440;11.084;2023-10-13T11:24:17;5.07;;;2.83;;
14686;SDS011;7431;49.440;11.084;2023-10-13T11:26:43;5.00;;;2.50;;
14686;SDS011;7431;49.440;11.084;2023-10-13T11:29:17;6.47;;;3.10;;
14686;SDS011;7431;49.440;11.084;2023-10-13T11:31:46;4.93;;;2.53;;
14686;SDS011;7431;49.440;11.084;2023-10-13T11:34:18;4.60;;;2.85;;
14686;SDS011;7431;49.440;11.084;2023-10-13T11:36:44;3.35;;;2.33;;
14686;SDS011;7431;49.440;11.084;2023-10-13T11:39:11;3.67;;;2.35;;
14686;SDS011;7431;49.440;11.084;2023-10-13T11:41:42;6.90;;;3.03;;
14686;SDS011;7431;49.440;11.084;2023-10-13T11:44:18;4.97;;;2.95;;
14686;SDS011;7431;49.440;11.084;2023-10-13T11:46:44;6.82;;;3.00;;
14686;SDS011;7431;49.440;11.084;2023-10-13T11:49:13;3.80;;;3.00;;
14686;SDS011;7431;49.440;11.084;2023-10-13T11:51:43;4.72;;;3.15;;
14686;SDS011;7431;49.440;11.084;2023-10-13T11:54:16;8.30;;;3.03;;
14686;SDS011;7431;49.440;11.084;2023-10-13T11:56:43;2.90;;;2.40;;
14686;SDS011;7431;49.440;11.084;2023-10-13T11:59:09;8.13;;;2.92;;
14686;SDS011;7431;49.440;11.084;2023-10-13T12:01:49;3.85;;;2.70;;
14686;SDS011;7431;49.440;11.084;2023-10-13T12:04:35;4.22;;;2.75;;
14686;SDS011;7431;49.440;11.084;2023-10-13T12:07:21;3.75;;;2.75;;
14686;SDS011;7431;49.440;11.084;2023-10-13T12:10:07;6.55;;;2.90;;
14686;SDS011;7431;49.440;11.084;2023-10-13T12:12:40;4.88;;;2.55;;
14686;SDS011;7431;49.440;11.084;2023-10-13T12:15:08;4.03;;;2.58;;
14686;SDS011;7431;49.440;11.084;2023-10-13T12:17:35;4.00;;;3.00;;
14686;SDS011;7431;49.440;11.084;2023-10-13T12:20:04;5.90;;;3.13;;
14686;SDS011;7431;49.440;11.084;2023-10-13T12:22:34;4.13;;;2.47;;
14686;SDS011;7431;49.440;11.084;2023-10-13T12:25:01;7.82;;;2.95;;
14686;SDS011;7431;49.440;11.084;2023-10-13T12:27:44;2.95;;;2.25;;
14686;SDS011;7431;49.440;11.084;2023-10-13T12:30:15;3.63;;;2.40;;
14686;SDS011;7431;49.440;11.084;2023-10-13T12:36:03;4.85;;;2.97;;
14686;SDS011;7431;49.440;11.084;2023-10-13T12:38:39;5.13;;;2.85;;
14686;SDS011;7431;49.440;11.084;2023-10-13T12:41:14;4.38;;;3.10;;
14686;SDS011;7431;49.440;11.084;2023-10-13T12:43:59;5.75;;;3.08;;
14686;SDS011;7431;49.440;11.084;2023-10-13T12:46:44;4.07;;;2.60;;
14686;SDS011;7431;49.440;11.084;2023-10-13T12:49:29;4.45;;;2.55;;
14686;SDS011;7431;49.440;11.084;2023-10-13T12:52:14;4.53;;;2.17;;
14686;SDS011;7431;49.440;11.084;2023-10-13T12:54:59;6.18;;;2.85;;
14686;SDS011;7431;49.440;11.084;2023-10-13T12:57:31;4.85;;;2.88;;
14686;SDS011;7431;49.440;11.084;2023-10-13T12:59:57;5.05;;;2.53;;
14686;SDS011;7431;49.440;11.084;2023-10-13T13:02:24;3.25;;;2.70;;
14686;SDS011;7431;49.440;11.084;2023-10-13T13:04:51;3.80;;;2.83;;
14686;SDS011;7431;49.440;11.084;2023-10-13T13:07:22;5.10;;;3.10;;
14686;SDS011;7431;49.440;11.084;2023-10-13T13:09:53;8.27;;;3.00;;
14686;SDS011;7431;49.440;11.084;2023-10-13T13:12:23;5.43;;;2.50;;
14686;SDS011;7431;49.440;11.084;2023-10-13T13:14:49;4.60;;;2.72;;
14686;SDS011;7431;49.440;11.084;2023-10-13T13:17:20;3.15;;;2.47;;
14686;SDS011;7431;49.440;11.084;2023-10-13T13:19:46;4.50;;;2.30;;
14686;SDS011;7431;49.440;11.084;2023-10-13T13:22:12;6.05;;;2.67;;
14686;SDS011;7431;49.440;11.084;2023-10-13T13:24:38;4.85;;;2.90;;
14686;SDS011;7431;49.440;11.084;2023-10-13T13:27:15;3.95;;;2.40;;
14686;SDS011;7431;49.440;11.084;2023-10-13T13:29:47;5.70;;;2.63;;
14686;SDS011;7431;49.440;11.084;2023-10-13T13:32:13;6.40;;;2.65;;
14686;SDS011;7431;49.440;11.084;2023-10-13T13:34:49;6.07;;;2.70;;
14686;SDS011;7431;49.440;11.084;2023-10-13T13:37:31;2.58;;;2.13;;
14686;SDS011;7431;49.440;11.084;2023-10-13T13:39:57;4.45;;;2.50;;
14686;SDS011;7431;49.440;11.084;2023-10-13T13:42:38;4.50;;;2.63;;
14686;SDS011;7431;49.440;11.084;2023-10-13T13:45:06;11.23;;;6.53;;
14686;SDS011;7431;49.440;11.084;2023-10-13T13:47:33;5.18;;;3.42;;
14686;SDS011;7431;49.440;11.084;2023-10-13T13:49:59;4.22;;;2.42;;
14686;SDS011;7431;49.440;11.084;2023-10-13T13:52:30;3.88;;;2.65;;
14686;SDS011;7431;49.440;11.084;2023-10-13T13:55:10;3.65;;;1.98;;
14686;SDS011;7431;49.440;11.084;2023-10-13T13:57:42;3.55;;;2.28;;
14686;SDS011;7431;49.440;11.084;2023-10-13T14:00:08;3.08;;;2.28;;
14686;SDS011;7431;49.440;11.084;2023-10-13T14:02:41;4.45;;;2.53;;
14686;SDS011;7431;49.440;11.084;2023-10-13T14:05:12;3.47;;;2.42;;
14686;SDS011;7431;49.440;11.084;2023-10-13T14:07:40;4.78;;;2.55;;
14686;SDS011;7431;49.440;11.084;2023-10-13T14:10:07;4.38;;;2.63;;
14686;SDS011;7431;49.440;11.084;2023-10-13T14:12:41;5.03;;;2.53;;
14686;SDS011;7431;49.440;11.084;2023-10-13T14:15:10;5.78;;;2.88;;
14686;SDS011;7431;49.440;11.084;2023-10-13T14:17:45;5.68;;;2.80;;
14686;SDS011;7431;49.440;11.084;2023-10-13T14:20:14;4.47;;;2.08;;
14686;SDS011;7431;49.440;11.084;2023-10-13T14:22:43;5.10;;;2.53;;
14686;SDS011;7431;49.440;11.084;2023-10-13T14:25:12;3.15;;;2.25;;
14686;SDS011;7431;49.440;11.084;2023-10-13T14:27:39;3.85;;;1.95;;
14686;SDS011;7431;49.440;11.084;2023-10-13T14:30:05;3.33;;;2.00;;
14686;SDS011;7431;49.440;11.084;2023-10-13T14:32:31;5.03;;;2.42;;
14686;SDS011;7431;49.440;11.084;2023-10-13T14:34:57;3.05;;;2.17;;
14686;SDS011;7431;49.440;11.084;2023-10-13T14:37:25;3.60;;;2.30;;
14686;SDS011;7431;49.440;11.084;2023-10-13T14:39:52;3.40;;;2.25;;
14686;SDS011;7431;49.440;11.084;2023-10-13T14:42:21;4.88;;;2.40;;
14686;SDS011;7431;49.440;11.084;2023-10-13T14:44:49;5.45;;;2.20;;
14686;SDS011;7431;49.440;11.084;2023-10-13T14:47:20;6.05;;;2.58;;
14686;SDS011;7431;49.440;11.084;2023-10-13T14:49:49;3.03;;;2.13;;
14686;SDS011;7431;49.440;11.084;2023-10-13T14:52:15;5.50;;;2.25;;
14686;SDS011;7431;49.440;11.084;2023-10-13T14:54:43;7.82;;;2.42;;
14686;SDS011;7431;49.440;11.084;2023-10-13T14:57:09;3.53;;;2.10;;
14686;SDS011;7431;49.440;11.084;2023-10-13T14:59:35;3.67;;;2.33;;
14686;SDS011;7431;49.440;11.084;2023-10-13T15:02:03;3.13;;;2.20;;
14686;SDS011;7431;49.440;11.084;2023-10-13T15:04:29;4.43;;;2.38;;
14686;SDS011;7431;49.440;11.084;2023-10-13T15:06:59;3.58;;;2.50;;
14686;SDS011;7431;49.440;11.084;2023-10-13T15:09:28;5.03;;;2.65;;
14686;SDS011;7431;49.440;11.084;2023-10-13T15:11:54;3.92;;;2.45;;
14686;SDS011;7431;49.440;11.084;2023-10-13T15:14:20;4.45;;;2.28;;
14686;SDS011;7431;49.440;11.084;2023-10-13T15:16:48;2.90;;;2.40;;
14686;SDS011;7431;49.440;11.084;2023-10-13T15:19:14;4.43;;;2.28;;
14686;SDS011;7431;49.440;11.084;2023-10-13T15:21:41;7.40;;;2.70;;
14686;SDS011;7431;49.440;11.084;2023-10-13T15:24:08;4.10;;;2.63;;
14686;SDS011;7431;49.440;11.084;2023-10-13T15:26:46;3.50;;;2.20;;
14686;SDS011;7431;49.440;11.084;2023-10-13T15:29:18;4.80;;;2.47;;
14686;SDS011;7431;49.440;11.084;2023-10-13T15:31:50;6.85;;;2.42;;
14686;SDS011;7431;49.440;11.084;2023-10-13T15:34:25;5.93;;;2.55;;
14686;SDS011;7431;49.440;11.084;2023-10-13T15:36:52;3.47;;;2.33;;
14686;SDS011;7431;49.440;11.084;2023-10-13T15:39:19;3.60;;;2.45;;
14686;SDS011;7431;49.440;11.084;2023-10-13T15:41:49;6.35;;;2.42;;
14686;SDS011;7431;49.440;11.084;2023-10-13T15:44:18;2.88;;;2.15;;
14686;SDS011;7431;49.440;11.084;2023-10-13T15:46:45;4.05;;;2.35;;
14686;SDS011;7431;49.440;11.084;2023-10-13T15:49:14;3.63;;;2.35;;